Time;durP1;ratioP1;P1;durP2;ratioP2;P2;SDS_P1;SDS_P2;PMS_P1;PMS_P2;Temp;Humidity;BMP_temperature;BMP_pressure;BME280_temperature;BME280_humidity;BME280_pressure;Samples;Min_cycle;Max_cycle;Signal;HPM_P1;HPM_P2
2023/08/09 00:01:52;;;;;;;1.83;1.50;;;;;;;13.58;81.01;100658.19;5039168;28;20216;-69
2023/08/09 00:04:19;;;;;;;2.67;1.70;;;;;;;13.58;81.42;100666.16;5036376;28;20668;-70
2023/08/09 00:06:45;;;;;;;1.43;1.33;;;;;;;13.58;81.33;100649.44;5039135;28;20269;-70
2023/08/09 00:09:11;;;;;;;1.87;1.40;;;;;;;13.57;81.40;100648.66;5038654;28;20293;-70
2023/08/09 00:11:39;;;;;;;2.07;1.70;;;;;;;13.59;81.37;100646.47;5041527;28;20278;-69
2023/08/09 00:14:05;;;;;;;2.00;1.80;;;;;;;13.59;81.44;100645.69;5039525;28;20210;-70
2023/08/09 00:16:32;;;;;;;1.70;1.40;;;;;;;13.58;81.27;100646.78;5040553;28;20689;-70
2023/08/09 00:18:58;;;;;;;2.23;1.63;;;;;;;13.58;81.51;100649.44;5039723;28;20233;-70
2023/08/09 00:21:24;;;;;;;1.93;1.70;;;;;;;13.55;81.58;100637.63;5035238;28;20217;-70
2023/08/09 00:23:51;;;;;;;2.30;1.70;;;;;;;13.53;81.62;100626.63;5038444;28;20202;-69
2023/08/09 00:26:18;;;;;;;4.53;1.67;;;;;;;13.48;81.34;100621.56;5038944;28;20541;-69
2023/08/09 00:28:45;;;;;;;1.70;1.60;;;;;;;13.46;81.50;100620.38;5039314;28;20233;-69
2023/08/09 00:31:12;;;;;;;2.33;1.70;;;;;;;13.44;81.19;100623.34;5021387;28;20206;-71
2023/08/09 00:33:39;;;;;;;1.50;1.40;;;;;;;13.38;81.53;100619.44;5038063;28;20197;-70
2023/08/09 00:36:05;;;;;;;2.40;2.20;;;;;;;13.35;81.72;100609.50;5026088;28;20806;-69
2023/08/09 00:38:31;;;;;;;2.83;1.90;;;;;;;13.33;81.38;100605.63;5018515;28;20206;-70
2023/08/09 00:40:58;;;;;;;2.63;2.10;;;;;;;13.27;81.54;100599.84;5037143;28;20238;-69
2023/08/09 00:43:24;;;;;;;2.00;1.90;;;;;;;13.24;81.49;100600.50;5019376;28;20776;-70
2023/08/09 00:45:52;;;;;;;3.80;2.70;;;;;;;13.22;81.24;100602.75;5018124;28;20213;-70
2023/08/09 00:48:18;;;;;;;4.83;2.47;;;;;;;13.20;81.86;100597.00;5019792;28;20233;-70
2023/08/09 00:50:45;;;;;;;3.87;3.00;;;;;;;13.18;81.81;100593.16;5036716;28;20232;-69
2023/08/09 00:53:11;;;;;;;7.30;2.60;;;;;;;13.17;82.25;100599.56;5020538;28;20206;-70
2023/08/09 00:55:39;;;;;;;4.30;3.13;;;;;;;13.16;82.45;100598.03;5034344;28;20204;-70
2023/08/09 00:58:05;;;;;;;4.43;2.97;;;;;;;13.16;82.74;100606.75;5015298;28;20217;-69
2023/08/09 01:00:32;;;;;;;3.43;3.10;;;;;;;13.16;82.87;100609.41;5017472;28;20237;-70
2023/08/09 01:03:00;;;;;;;8.67;4.00;;;;;;;13.15;82.93;100615.06;5035218;28;20214;-69
2023/08/09 01:05:33;;;;;;;3.87;3.17;;;;;;;13.15;82.81;100617.72;5011532;28;20213;-70
2023/08/09 01:08:07;;;;;;;4.20;3.10;;;;;;;13.13;82.80;100615.38;5020448;28;20222;-70
2023/08/09 01:10:39;;;;;;;6.47;3.80;;;;;;;13.13;82.36;100609.31;5038581;28;20221;-70
2023/08/09 01:13:07;;;;;;;4.73;3.43;;;;;;;13.10;82.76;100608.09;5039355;28;20210;-69
2023/08/09 01:15:34;;;;;;;9.47;4.47;;;;;;;13.06;82.72;100604.63;5024271;28;20206;-70
2023/08/09 01:18:03;;;;;;;7.13;3.87;;;;;;;13.02;82.85;100603.75;5021233;28;20245;-70
2023/08/09 01:20:33;;;;;;;7.00;3.90;;;;;;;12.99;82.57;100604.41;5023764;28;20223;-69
2023/08/09 01:23:02;;;;;;;4.83;3.63;;;;;;;12.99;82.94;100603.66;5020538;28;20210;-69
2023/08/09 01:25:30;;;;;;;4.63;3.63;;;;;;;13.01;83.28;100609.38;5042317;28;20218;-70
2023/08/09 01:27:58;;;;;;;7.23;3.90;;;;;;;12.99;83.24;100615.03;5023865;28;20325;-69
2023/08/09 01:30:25;;;;;;;7.63;4.10;;;;;;;12.98;83.90;100615.34;5037500;28;20405;-70
2023/08/09 01:32:54;;;;;;;5.53;3.73;;;;;;;12.98;83.33;100621.44;5020734;28;20202;-69
2023/08/09 01:35:20;;;;;;;6.17;4.13;;;;;;;13.02;83.19;100624.19;5042805;28;20240;-70
2023/08/09 01:37:52;;;;;;;6.93;4.47;;;;;;;13.02;83.17;100617.00;5022184;28;20218;-69
2023/08/09 01:40:20;;;;;;;4.53;3.43;;;;;;;12.99;83.63;100619.56;5035558;28;20221;-69
2023/08/09 01:42:51;;;;;;;6.03;4.27;;;;;;;13.01;83.58;100625.28;5023803;28;20208;-69
2023/08/09 01:45:19;;;;;;;6.07;3.70;;;;;;;12.99;84.18;100612.38;5043585;28;20577;-70
2023/08/09 01:47:46;;;;;;;7.77;4.23;;;;;;;13.03;84.23;100613.25;5023117;28;20215;-69
2023/08/09 01:50:19;;;;;;;8.30;4.30;;;;;;;13.05;84.40;100623.50;5020828;28;20225;-69
2023/08/09 01:52:46;;;;;;;8.50;3.83;;;;;;;13.08;84.18;100623.59;5040578;28;20218;-69
2023/08/09 01:55:15;;;;;;;7.60;4.17;;;;;;;13.09;84.23;100630.44;5039651;28;20221;-69
2023/08/09 01:57:42;;;;;;;7.47;4.63;;;;;;;13.13;84.16;100622.56;5025074;28;20870;-69
2023/08/09 02:00:15;;;;;;;7.77;3.83;;;;;;;13.16;83.76;100619.25;5024668;28;20609;-69
2023/08/09 02:02:42;;;;;;;6.70;4.63;;;;;;;13.18;83.97;100617.78;5038735;28;20202;-69
2023/08/09 02:05:09;;;;;;;7.87;4.93;;;;;;;13.19;84.27;100618.56;5043023;28;20767;-70
2023/08/09 02:07:35;;;;;;;4.70;4.10;;;;;;;13.22;84.12;100620.53;5025649;28;20206;-69
2023/08/09 02:10:01;;;;;;;5.93;4.03;;;;;;;13.24;83.89;100611.13;5035367;28;20483;-69
2023/08/09 02:12:28;;;;;;;4.30;3.90;;;;;;;13.27;83.77;100617.63;5023916;28;20605;-69
2023/08/09 02:14:55;;;;;;;6.67;4.10;;;;;;;13.29;83.55;100612.72;5042770;28;20846;-69
2023/08/09 02:17:22;;;;;;;5.03;4.30;;;;;;;13.30;84.09;100622.25;5016523;28;20543;-69
2023/08/09 02:19:49;;;;;;;6.80;4.10;;;;;;;13.34;83.64;100615.91;5039862;28;20714;-69
2023/08/09 02:22:17;;;;;;;5.50;3.87;;;;;;;13.38;83.60;100616.00;5019923;28;20212;-70
2023/08/09 02:24:44;;;;;;;7.10;4.10;;;;;;;13.41;83.85;100610.00;5038925;28;20564;-70
2023/08/09 02:27:11;;;;;;;5.03;3.60;;;;;;;13.43;83.28;100602.47;5041533;28;20672;-70
2023/08/09 02:29:37;;;;;;;6.97;4.43;;;;;;;13.44;83.85;100596.81;5040339;28;20302;-69
2023/08/09 02:32:04;;;;;;;7.17;4.13;;;;;;;13.46;83.62;100589.28;5039719;28;20209;-69
2023/08/09 02:34:32;;;;;;;7.60;4.10;;;;;;;13.46;83.49;100586.63;5020785;28;20210;-69
2023/08/09 02:36:59;;;;;;;4.60;3.80;;;;;;;13.47;83.41;100574.94;5033320;28;20211;-69
2023/08/09 02:39:26;;;;;;;5.30;3.80;;;;;;;13.50;83.30;100576.13;5042865;28;20287;-70
2023/08/09 02:41:52;;;;;;;7.40;4.00;;;;;;;13.48;83.26;100568.50;5039938;28;20203;-69
2023/08/09 02:44:19;;;;;;;5.17;3.83;;;;;;;13.51;83.13;100570.44;5037438;28;20245;-70
2023/08/09 02:46:45;;;;;;;4.50;3.70;;;;;;;13.50;83.27;100582.19;5024670;28;20652;-69
2023/08/09 02:49:12;;;;;;;6.10;4.07;;;;;;;13.53;83.36;100586.81;5039357;28;20726;-70
2023/08/09 02:51:39;;;;;;;4.97;3.97;;;;;;;13.53;83.40;100581.50;5023431;28;20257;-69
2023/08/09 02:54:06;;;;;;;8.73;4.00;;;;;;;13.55;83.39;100563.34;5041793;28;20778;-69
2023/08/09 02:56:34;;;;;;;5.13;3.80;;;;;;;13.58;83.06;100573.28;5022875;28;20283;-70
2023/08/09 02:59:01;;;;;;;4.83;3.73;;;;;;;13.58;83.07;100567.97;5017944;28;20227;-69
2023/08/09 03:01:29;;;;;;;6.07;3.70;;;;;;;13.58;82.72;100567.97;5041455;28;20731;-69
2023/08/09 03:03:56;;;;;;;5.03;3.57;;;;;;;13.59;82.91;100566.09;5035500;28;20600;-70
2023/08/09 03:06:22;;;;;;;5.67;3.87;;;;;;;13.57;82.97;100569.06;5041425;28;20198;-69
2023/08/09 03:08:50;;;;;;;6.23;3.70;;;;;;;13.58;83.05;100570.63;5022688;28;20716;-70
2023/08/09 03:11:18;;;;;;;3.80;3.20;;;;;;;13.56;83.01;100574.75;5019552;28;20305;-69
2023/08/09 03:13:45;;;;;;;10.93;4.23;;;;;;;13.55;82.90;100576.63;5018534;28;20206;-70
2023/08/09 03:16:12;;;;;;;4.97;3.70;;;;;;;13.55;83.16;100575.88;5021349;28;20196;-69
2023/08/09 03:18:39;;;;;;;5.13;3.37;;;;;;;13.55;83.37;100570.56;5021431;28;20618;-70
2023/08/09 03:21:06;;;;;;;5.03;3.70;;;;;;;13.55;83.19;100579.28;5038951;28;20210;-70
2023/08/09 03:23:33;;;;;;;5.33;3.40;;;;;;;13.56;83.62;100591.41;5020921;28;20202;-70
2023/08/09 03:26:01;;;;;;;3.47;3.00;;;;;;;13.58;83.52;100596.38;5017094;28;20206;-70
2023/08/09 03:28:28;;;;;;;7.33;3.60;;;;;;;13.59;83.65;100598.69;5027748;28;20205;-70
2023/08/09 03:30:54;;;;;;;4.17;2.87;;;;;;;13.61;83.46;100593.81;5020085;28;20873;-70
2023/08/09 03:33:21;;;;;;;4.37;3.57;;;;;;;13.63;83.46;100594.25;5021949;28;20210;-70
2023/08/09 03:35:47;;;;;;;4.10;3.17;;;;;;;13.67;83.32;100589.03;5033909;28;20581;-70
2023/08/09 03:38:15;;;;;;;5.50;3.30;;;;;;;13.67;83.10;100600.38;5035010;28;20216;-69
2023/08/09 03:40:41;;;;;;;4.37;3.00;;;;;;;13.70;83.46;100593.63;5023271;28;20571;-70
2023/08/09 03:43:10;;;;;;;3.60;3.13;;;;;;;13.72;83.68;100597.47;5015552;28;20284;-70
2023/08/09 03:45:36;;;;;;;3.47;3.10;;;;;;;13.73;83.64;100607.00;5018449;28;20221;-69
2023/08/09 03:48:04;;;;;;;5.17;3.43;;;;;;;13.75;83.78;100612.72;5020837;28;20250;-70
2023/08/09 03:50:31;;;;;;;4.60;3.30;;;;;;;13.78;83.82;100616.56;5018780;28;21015;-69
2023/08/09 03:52:57;;;;;;;7.13;3.23;;;;;;;13.80;83.60;100622.28;5032951;28;20211;-70
2023/08/09 03:55:24;;;;;;;5.90;3.67;;;;;;;13.82;83.95;100628.03;5020134;28;20270;-70
2023/08/09 03:57:51;;;;;;;5.17;3.40;;;;;;;13.83;83.82;100627.69;5037310;28;20293;-69
2023/08/09 04:00:22;;;;;;;6.93;3.60;;;;;;;13.84;83.68;100629.22;5023806;28;20229;-70
2023/08/09 04:02:48;;;;;;;5.73;3.77;;;;;;;13.85;83.47;100633.41;5018505;28;20670;-70
2023/08/09 04:05:16;;;;;;;3.57;3.27;;;;;;;13.87;83.19;100638.38;5023373;28;20385;-70
2023/08/09 04:07:43;;;;;;;3.90;3.43;;;;;;;13.87;83.56;100647.09;5018909;28;20264;-70
2023/08/09 04:10:10;;;;;;;5.20;3.67;;;;;;;13.87;83.24;100638.38;5018887;28;20237;-70
2023/08/09 04:12:36;;;;;;;5.17;3.97;;;;;;;13.85;83.39;100635.28;5037130;28;21519;-69
2023/08/09 04:15:03;;;;;;;5.40;4.50;;;;;;;13.87;83.03;100646.34;5019108;28;20201;-69
2023/08/09 04:17:32;;;;;;;7.97;3.47;;;;;;;13.84;83.23;100649.69;5035026;28;20213;-69
2023/08/09 04:19:58;;;;;;;6.80;3.90;;;;;;;13.84;83.35;100655.78;5040289;28;20775;-70
2023/08/09 04:22:25;;;;;;;4.57;3.53;;;;;;;13.84;83.07;100668.25;5019646;28;20199;-70
2023/08/09 04:24:51;;;;;;;8.13;3.80;;;;;;;13.83;83.40;100678.13;5033117;28;20200;-69
2023/08/09 04:27:17;;;;;;;6.53;3.80;;;;;;;13.83;83.72;100680.00;5034305;28;20584;-69
2023/08/09 04:29:45;;;;;;;6.27;3.80;;;;;;;13.82;83.72;100676.56;5038449;28;20226;-69
2023/08/09 04:32:12;;;;;;;4.70;3.63;;;;;;;13.81;83.45;100688.31;5037281;28;20195;-69
2023/08/09 04:34:40;;;;;;;6.07;3.57;;;;;;;13.84;83.60;100689.50;5038725;28;20560;-69
2023/08/09 04:37:06;;;;;;;5.07;3.60;;;;;;;13.82;83.80;100692.50;5037429;28;20268;-69
2023/08/09 04:39:33;;;;;;;6.67;4.20;;;;;;;13.81;83.61;100693.59;5019549;28;20237;-70
2023/08/09 04:41:59;;;;;;;7.37;4.27;;;;;;;13.83;83.64;100696.72;5039228;28;20198;-70
2023/08/09 04:44:26;;;;;;;5.87;3.83;;;;;;;13.86;83.75;100692.56;5037397;28;20210;-69
2023/08/09 04:46:53;;;;;;;5.77;3.87;;;;;;;13.86;84.11;100695.22;5036470;28;20221;-69
2023/08/09 04:49:19;;;;;;;3.93;3.60;;;;;;;13.87;83.82;100694.13;5043230;28;20223;-69
2023/08/09 04:51:47;;;;;;;8.10;4.07;;;;;;;13.87;84.29;100689.56;5042490;28;20211;-69
2023/08/09 04:54:13;;;;;;;8.50;4.63;;;;;;;13.87;84.21;100692.22;5041467;28;20256;-69
2023/08/09 04:56:40;;;;;;;9.87;4.57;;;;;;;13.89;83.95;100684.72;5045071;28;20731;-69
2023/08/09 04:59:06;;;;;;;7.07;4.47;;;;;;;13.90;84.35;100680.16;5041536;28;20222;-69
2023/08/09 05:01:33;;;;;;;7.83;4.13;;;;;;;13.90;84.13;100686.25;5041853;28;20236;-69
2023/08/09 05:03:59;;;;;;;5.53;4.10;;;;;;;13.91;84.43;100676.38;5041052;28;20187;-69
2023/08/09 05:06:27;;;;;;;5.83;4.10;;;;;;;13.93;84.17;100674.16;5044141;28;20323;-69
2023/08/09 05:08:55;;;;;;;10.57;4.30;;;;;;;13.96;84.11;100665.50;5043633;28;20294;-69
2023/08/09 05:11:21;;;;;;;5.63;4.63;;;;;;;13.94;84.53;100665.88;5045518;28;20212;-69
2023/08/09 05:13:47;;;;;;;6.20;4.10;;;;;;;13.93;84.31;100659.00;5042784;28;20349;-69
2023/08/09 05:16:14;;;;;;;6.33;4.30;;;;;;;13.91;84.43;100666.53;5042045;28;20608;-69
2023/08/09 05:18:40;;;;;;;6.33;4.30;;;;;;;13.90;84.35;100662.34;5044287;28;20214;-69
2023/08/09 05:21:06;;;;;;;4.80;4.30;;;;;;;13.90;84.26;100667.66;5042203;28;20203;-70
2023/08/09 05:23:33;;;;;;;6.80;4.00;;;;;;;13.89;83.81;100644.91;5045166;28;20662;-70
2023/08/09 05:26:00;;;;;;;8.23;4.37;;;;;;;13.90;84.34;100629.72;5045120;28;20199;-70
2023/08/09 05:28:27;;;;;;;6.47;3.67;;;;;;;13.87;84.14;100630.44;5042522;28;20583;-69
2023/08/09 05:30:53;;;;;;;5.87;4.30;;;;;;;13.88;83.86;100655.84;5042962;28;20651;-70
2023/08/09 05:33:20;;;;;;;5.30;4.00;;;;;;;13.87;84.17;100665.69;5043056;28;20206;-70
2023/08/09 05:35:46;;;;;;;6.13;4.20;;;;;;;13.85;83.90;100665.28;5042531;28;20588;-69
2023/08/09 05:38:12;;;;;;;4.03;3.60;;;;;;;13.86;84.11;100673.97;5041431;28;20728;-70
2023/08/09 05:40:39;;;;;;;3.60;3.30;;;;;;;13.85;84.43;100665.28;5045081;28;20231;-70
2023/08/09 05:43:06;;;;;;;6.40;4.10;;;;;;;13.88;84.41;100642.56;5040580;28;20207;-70
2023/08/09 05:45:32;;;;;;;6.17;4.20;;;;;;;13.90;84.46;100616.44;5044464;28;20212;-70
2023/08/09 05:47:59;;;;;;;7.33;4.37;;;;;;;13.92;84.45;100633.56;5044515;28;20210;-70
2023/08/09 05:50:25;;;;;;;6.93;4.70;;;;;;;13.97;85.36;100651.13;5044169;28;20236;-71
2023/08/09 05:52:51;;;;;;;7.17;5.00;;;;;;;13.99;84.79;100673.56;5039000;28;20199;-71
2023/08/09 05:55:18;;;;;;;6.40;4.70;;;;;;;13.97;85.08;100707.63;5046273;28;20667;-70
2023/08/09 05:57:44;;;;;;;4.10;3.70;;;;;;;13.98;84.65;100719.03;5046312;28;20210;-71
2023/08/09 06:00:15;;;;;;;5.70;3.83;;;;;;;13.98;84.82;100719.03;5040155;28;20219;-71
2023/08/09 06:02:42;;;;;;;6.40;4.33;;;;;;;13.97;84.53;100709.53;5037004;28;20206;-71
2023/08/09 06:05:09;;;;;;;5.20;4.10;;;;;;;14.03;84.38;100690.31;5037898;28;20257;-71
2023/08/09 06:07:35;;;;;;;9.47;4.77;;;;;;;14.06;84.17;100679.03;5039258;28;20203;-71
2023/08/09 06:10:01;;;;;;;6.27;4.83;;;;;;;14.08;84.41;100689.31;5040099;28;20601;-71
2023/08/09 06:12:28;;;;;;;6.30;4.47;;;;;;;14.14;83.35;100695.88;5043943;28;20195;-71
2023/08/09 06:14:54;;;;;;;6.33;4.50;;;;;;;14.18;83.64;100697.50;5042510;28;20199;-71
2023/08/09 06:17:22;;;;;;;5.50;4.37;;;;;;;14.20;83.55;100694.53;5040285;28;20226;-71
2023/08/09 06:19:48;;;;;;;5.13;4.13;;;;;;;14.23;83.19;100697.25;5039840;28;20230;-71
2023/08/09 06:22:14;;;;;;;5.57;3.73;;;;;;;14.29;83.68;100684.50;5039080;28;20203;-71
2023/08/09 06:24:41;;;;;;;5.10;4.00;;;;;;;14.32;83.35;100668.63;5040195;28;20215;-71
2023/08/09 06:27:07;;;;;;;4.37;3.93;;;;;;;14.37;83.55;100655.06;5039771;28;20218;-71
2023/08/09 06:29:33;;;;;;;6.67;4.27;;;;;;;14.40;83.32;100654.38;5040373;28;20230;-71
2023/08/09 06:31:59;;;;;;;4.60;4.00;;;;;;;14.42;83.43;100652.13;5039876;28;20204;-71
2023/08/09 06:34:27;;;;;;;5.40;4.27;;;;;;;14.44;83.25;100681.03;5037507;28;20208;-71
2023/08/09 06:36:53;;;;;;;3.80;3.47;;;;;;;14.44;83.20;100703.03;5038153;28;20195;-71
2023/08/09 06:39:20;;;;;;;7.13;3.80;;;;;;;14.44;82.87;100721.63;5039222;28;20318;-71
2023/08/09 06:41:46;;;;;;;5.17;3.40;;;;;;;14.47;83.23;100726.25;5040416;28;20206;-71
2023/08/09 06:44:15;;;;;;;3.97;3.03;;;;;;;14.47;83.00;100728.13;5037816;28;20656;-71
2023/08/09 06:46:42;;;;;;;4.80;3.43;;;;;;;14.46;82.76;100732.69;5040288;28;20226;-71
2023/08/09 06:49:08;;;;;;;4.30;3.80;;;;;;;14.44;83.20;100736.81;5037182;28;20231;-71
2023/08/09 06:51:36;;;;;;;4.27;3.87;;;;;;;14.46;82.72;100742.53;5042845;28;20334;-71
2023/08/09 06:54:03;;;;;;;4.67;3.80;;;;;;;14.45;82.88;100744.44;5039436;28;20199;-71
2023/08/09 06:56:29;;;;;;;5.27;3.73;;;;;;;14.45;82.95;100736.47;5043283;28;20292;-71
2023/08/09 06:58:56;;;;;;;4.00;3.67;;;;;;;14.45;82.90;100725.06;5038128;28;20228;-71
2023/08/09 07:01:22;;;;;;;5.00;3.87;;;;;;;14.45;83.01;100719.75;5040500;28;20203;-71
2023/08/09 07:03:50;;;;;;;7.53;4.10;;;;;;;14.48;83.13;100713.72;5039568;28;20285;-72
2023/08/09 07:06:16;;;;;;;5.10;4.13;;;;;;;14.51;83.42;100721.78;5041423;28;20207;-71
2023/08/09 07:08:44;;;;;;;6.40;4.53;;;;;;;14.55;83.57;100719.22;5040083;28;20195;-71
2023/08/09 07:11:10;;;;;;;5.27;4.77;;;;;;;14.59;83.55;100720.06;5041688;28;20570;-71
2023/08/09 07:13:36;;;;;;;5.07;4.57;;;;;;;14.63;83.42;100718.22;5037932;28;20244;-71
2023/08/09 07:16:03;;;;;;;6.17;4.47;;;;;;;14.68;83.66;100725.91;5039723;28;20207;-71
2023/08/09 07:18:29;;;;;;;6.03;4.73;;;;;;;14.72;83.38;100730.22;5039909;28;20196;-71
2023/08/09 07:20:57;;;;;;;7.03;5.97;;;;;;;14.79;83.24;100729.56;5038944;28;20226;-71
2023/08/09 07:23:23;;;;;;;6.33;5.70;;;;;;;14.89;84.17;100747.63;5039773;28;20813;-71
2023/08/09 07:25:51;;;;;;;7.93;6.60;;;;;;;15.01;84.41;100742.19;5037277;28;20581;-71
2023/08/09 07:28:17;;;;;;;8.40;6.73;;;;;;;15.17;84.56;100748.19;5039285;28;20201;-71
2023/08/09 07:30:43;;;;;;;8.13;7.13;;;;;;;15.35;84.95;100744.75;5040688;28;20232;-71
2023/08/09 07:33:10;;;;;;;9.70;6.60;;;;;;;15.54;84.20;100749.28;5038805;28;20206;-71
2023/08/09 07:35:36;;;;;;;7.80;6.43;;;;;;;15.69;82.94;100754.47;5041352;28;20206;-71
2023/08/09 07:38:03;;;;;;;4.80;4.30;;;;;;;15.78;81.18;100749.69;5037315;28;20215;-71
2023/08/09 07:40:30;;;;;;;5.33;4.03;;;;;;;15.90;80.94;100751.41;5037343;28;20236;-72
2023/08/09 07:42:59;;;;;;;8.40;3.33;;;;;;;15.99;80.61;100754.59;5035638;28;20221;-71
2023/08/09 07:45:25;;;;;;;4.97;3.60;;;;;;;16.10;80.96;100750.97;5037738;28;20183;-71
2023/08/09 07:47:52;;;;;;;5.23;3.50;;;;;;;16.19;80.09;100758.72;5037299;28;20210;-71
2023/08/09 07:50:18;;;;;;;4.57;2.90;;;;;;;16.26;79.01;100754.25;5041119;28;20230;-71
2023/08/09 07:52:44;;;;;;;3.03;2.43;;;;;;;16.32;77.73;100758.16;5036993;28;20677;-71
2023/08/09 07:55:11;;;;;;;4.97;2.27;;;;;;;16.37;77.55;100760.53;5043585;28;20207;-72
2023/08/09 07:57:37;;;;;;;3.57;2.20;;;;;;;16.43;77.83;100769.78;5036198;28;20202;-71
2023/08/09 08:00:11;;;;;;;3.10;1.93;;;;;;;16.49;77.43;100775.56;5039000;28;20223;-72
2023/08/09 08:02:42;;;;;;;3.63;1.90;;;;;;;16.49;77.01;100771.00;5038344;28;20206;-71
2023/08/09 08:05:11;;;;;;;2.87;1.90;;;;;;;16.52;75.89;100772.19;5039054;28;20208;-71
2023/08/09 08:07:38;;;;;;;2.23;1.93;;;;;;;16.55;76.67;100782.13;5039021;28;20573;-71
2023/08/09 08:10:08;;;;;;;2.90;2.07;;;;;;;16.57;76.44;100777.19;5036985;28;20231;-72
2023/08/09 08:12:34;;;;;;;2.77;2.33;;;;;;;16.61;76.41;100794.78;5036856;28;20683;-72
2023/08/09 08:15:00;;;;;;;3.67;1.90;;;;;;;16.56;74.95;100794.34;5036449;28;20207;-72
2023/08/09 08:17:28;;;;;;;2.60;1.97;;;;;;;16.56;75.48;100799.66;5037812;28;20207;-71
2023/08/09 08:19:54;;;;;;;3.77;2.37;;;;;;;16.54;75.63;100808.00;5036731;28;20226;-71
2023/08/09 08:22:21;;;;;;;2.90;1.77;;;;;;;16.58;76.33;100806.19;5039403;28;20652;-72
2023/08/09 08:24:47;;;;;;;3.17;2.10;;;;;;;16.62;75.44;100806.22;5038549;28;20285;-72
2023/08/09 08:27:14;;;;;;;2.87;2.00;;;;;;;16.61;73.77;100810.78;5037048;28;20199;-71
2023/08/09 08:29:40;;;;;;;2.50;2.07;;;;;;;16.63;75.37;100808.53;5039507;28;20219;-71
2023/08/09 08:32:07;;;;;;;2.67;1.77;;;;;;;16.72;75.15;100818.94;5037678;28;20741;-71
2023/08/09 08:34:35;;;;;;;2.57;1.90;;;;;;;16.77;73.88;100826.63;5039076;28;20684;-72
2023/08/09 08:37:01;;;;;;;1.90;1.60;;;;;;;16.86;74.07;100827.13;5039476;28;20692;-72
2023/08/09 08:39:29;;;;;;;2.10;1.60;;;;;;;16.90;73.81;100823.38;5034225;28;20234;-71
2023/08/09 08:41:56;;;;;;;3.73;2.00;;;;;;;17.02;73.57;100817.81;5033353;28;20273;-72
2023/08/09 08:44:24;;;;;;;2.37;1.87;;;;;;;17.14;73.61;100814.94;5040299;28;20257;-71
2023/08/09 08:46:50;;;;;;;3.17;1.60;;;;;;;17.27;72.24;100820.78;5035777;28;20214;-72
2023/08/09 08:49:20;;;;;;;3.13;1.80;;;;;;;17.39;71.88;100821.31;5036341;28;20228;-72
2023/08/09 08:51:50;;;;;;;3.47;1.73;;;;;;;17.52;70.08;100821.84;5032676;28;20230;-72
2023/08/09 08:54:18;;;;;;;2.10;1.33;;;;;;;17.64;69.29;100816.28;5036897;28;20210;-72
2023/08/09 08:56:44;;;;;;;4.37;1.50;;;;;;;17.71;70.83;100816.31;5036455;28;20208;-72
2023/08/09 08:59:12;;;;;;;1.77;1.13;;;;;;;17.80;69.77;100814.13;5038169;28;20234;-72
2023/08/09 09:01:38;;;;;;;1.70;1.20;;;;;;;17.84;68.42;100821.03;5039713;28;20605;-72
2023/08/09 09:04:05;;;;;;;2.43;1.10;;;;;;;17.91;69.77;100820.34;5037548;28;20203;-72
2023/08/09 09:06:32;;;;;;;1.97;1.47;;;;;;;17.86;67.43;100834.78;5038982;28;20199;-72
2023/08/09 09:09:00;;;;;;;3.57;1.40;;;;;;;17.85;68.00;100829.84;5033065;28;20281;-72
2023/08/09 09:11:26;;;;;;;1.60;1.50;;;;;;;17.91;67.24;100829.09;5040693;28;20253;-72
2023/08/09 09:13:53;;;;;;;2.37;1.40;;;;;;;17.98;65.76;100828.41;5034181;28;20292;-72
2023/08/09 09:16:21;;;;;;;2.03;1.03;;;;;;;18.05;67.15;100833.84;5037955;28;20571;-72
2023/08/09 09:18:48;;;;;;;3.20;1.00;;;;;;;18.19;67.37;100832.03;5036806;28;20199;-72
2023/08/09 09:21:16;;;;;;;1.77;1.03;;;;;;;18.28;65.98;100840.53;5037771;28;20207;-72
2023/08/09 09:23:43;;;;;;;1.90;1.30;;;;;;;18.28;62.71;100829.84;5033954;28;20553;-72
2023/08/09 09:26:12;;;;;;;1.20;1.00;;;;;;;18.37;64.03;100832.97;5031934;28;20207;-72
2023/08/09 09:28:41;;;;;;;2.07;1.00;;;;;;;18.53;67.44;100838.81;5036568;28;20214;-72
2023/08/09 09:31:08;;;;;;;1.87;0.90;;;;;;;18.56;62.22;100838.06;5037485;28;20229;-72
2023/08/09 09:33:36;;;;;;;2.10;1.00;;;;;;;18.60;63.58;100843.44;5039972;28;20203;-72
2023/08/09 09:36:03;;;;;;;1.13;1.00;;;;;;;18.54;65.74;100839.59;5039854;28;20207;-72
2023/08/09 09:38:30;;;;;;;3.43;1.27;;;;;;;18.52;63.58;100849.91;5042553;28;20207;-72
2023/08/09 09:40:57;;;;;;;2.60;1.00;;;;;;;18.51;62.20;100843.00;5039831;28;20234;-72
2023/08/09 09:43:25;;;;;;;1.50;1.10;;;;;;;18.45;63.15;100852.50;5042708;28;20207;-72
2023/08/09 09:45:54;;;;;;;2.17;0.83;;;;;;;18.40;61.63;100847.50;5040947;28;20203;-72
2023/08/09 09:48:21;;;;;;;2.70;1.10;;;;;;;18.31;58.82;100849.72;5039127;28;20220;-72
2023/08/09 09:50:48;;;;;;;1.77;0.97;;;;;;;18.31;59.03;100842.44;5041771;28;20269;-72
2023/08/09 09:53:15;;;;;;;2.13;0.80;;;;;;;18.33;61.11;100844.78;5039079;28;20211;-72
2023/08/09 09:55:41;;;;;;;1.23;0.90;;;;;;;18.41;60.93;100841.78;5041949;28;20203;-72
2023/08/09 09:58:08;;;;;;;2.63;0.90;;;;;;;18.55;59.51;100841.91;5037371;28;20198;-72
2023/08/09 10:00:37;;;;;;;1.30;1.00;;;;;;;18.71;60.87;100847.72;5040058;28;20214;-73
2023/08/09 10:03:04;;;;;;;1.30;0.93;;;;;;;18.95;64.63;100851.69;5036490;28;20282;-73
2023/08/09 10:05:35;;;;;;;1.83;1.00;;;;;;;19.01;64.23;100858.22;5041897;28;20237;-72
2023/08/09 10:08:04;;;;;;;0.77;0.70;;;;;;;19.05;62.62;100854.41;5041008;28;20211;-73
2023/08/09 10:10:32;;;;;;;1.50;1.00;;;;;;;19.07;59.64;100852.13;5043353;28;20778;-72
2023/08/09 10:13:03;;;;;;;3.57;1.00;;;;;;;19.12;59.22;100857.13;5036117;28;20210;-73
2023/08/09 10:15:32;;;;;;;1.97;1.00;;;;;;;19.31;61.02;100853.41;5040898;28;20195;-73
2023/08/09 10:18:10;;;;;;;1.83;1.20;;;;;;;19.51;59.39;100857.31;5041148;28;21122;-72
2023/08/09 10:20:38;;;;;;;1.70;0.83;;;;;;;19.57;56.49;100858.47;5043052;28;20612;-72
2023/08/09 10:23:04;;;;;;;2.17;1.20;;;;;;;19.63;59.72;100860.41;5036841;28;20977;-73
2023/08/09 10:25:42;;;;;;;0.93;0.80;;;;;;;19.69;57.71;100864.25;5042318;28;20211;-72
2023/08/09 10:28:09;;;;;;;1.90;1.00;;;;;;;19.64;57.26;100853.91;5036878;28;20207;-73
2023/08/09 10:30:45;;;;;;;2.30;0.97;;;;;;;19.76;57.20;100858.91;5043165;28;20226;-73
2023/08/09 10:33:18;;;;;;;2.73;1.07;;;;;;;19.86;57.77;100860.09;5036829;28;20237;-73
2023/08/09 10:35:50;;;;;;;1.77;1.00;;;;;;;19.90;55.58;100866.97;5038337;28;20265;-73
2023/08/09 10:38:19;;;;;;;2.37;0.93;;;;;;;20.00;55.16;100866.22;5039411;28;20191;-73
2023/08/09 10:40:51;;;;;;;3.93;0.93;;;;;;;20.05;55.67;100867.75;5041621;28;20235;-72
2023/08/09 10:43:20;;;;;;;1.20;1.00;;;;;;;19.98;54.15;100873.84;5040168;28;20670;-73
2023/08/09 10:45:46;;;;;;;1.53;0.90;;;;;;;19.95;55.12;100871.19;5042801;28;20217;-73
2023/08/09 10:48:21;;;;;;;2.10;0.80;;;;;;;19.96;55.20;100878.84;5038125;28;20557;-72
2023/08/09 10:50:47;;;;;;;2.30;0.90;;;;;;;20.00;53.40;100866.22;5044953;28;20223;-73
2023/08/09 10:53:21;;;;;;;1.40;0.90;;;;;;;20.05;53.36;100867.75;5039837;28;20696;-73
2023/08/09 10:55:49;;;;;;;2.10;0.90;;;;;;;20.16;51.97;100869.31;5041881;28;20680;-72
2023/08/09 10:58:15;;;;;;;1.90;1.10;;;;;;;20.11;53.26;100875.06;5042075;28;20199;-72
2023/08/09 11:00:42;;;;;;;3.17;0.90;;;;;;;20.07;53.13;100876.22;5043330;28;20675;-72
2023/08/09 11:03:09;;;;;;;1.10;0.90;;;;;;;20.14;53.24;100879.69;5039034;28;20287;-72
2023/08/09 11:05:38;;;;;;;2.60;1.03;;;;;;;20.20;52.04;100878.16;5043762;28;20242;-72
2023/08/09 11:08:11;;;;;;;2.30;0.70;;;;;;;20.26;50.55;100873.16;5039231;28;20631;-72
2023/08/09 11:10:39;;;;;;;2.70;0.80;;;;;;;20.27;48.22;100862.06;5040932;28;20224;-72
2023/08/09 11:13:08;;;;;;;1.20;0.73;;;;;;;20.28;45.76;100866.25;5038629;28;20611;-71
2023/08/09 11:15:35;;;;;;;1.03;0.70;;;;;;;20.43;51.27;100873.16;5041293;28;20207;-72
2023/08/09 11:18:02;;;;;;;2.10;0.90;;;;;;;20.54;50.74;100870.47;5040313;28;20235;-73
2023/08/09 11:20:29;;;;;;;0.97;0.90;;;;;;;20.65;48.45;100869.28;5042254;28;20223;-73
2023/08/09 11:22:59;;;;;;;2.07;0.70;;;;;;;20.75;49.54;100876.56;5041180;28;20697;-73
2023/08/09 11:25:27;;;;;;;0.77;0.60;;;;;;;20.76;47.53;100878.13;5040397;28;20198;-73